Hayward, CA

8:38 AM PDT on June 25, 2017 (GMT -0700)
Hayward Hills, sagehouse | | Change Station

Elev 1010 ft 37.65 °N, 122.03 °W | Updated 1 second ago

Overcast
Overcast
56.3 °F
Feels Like 56.3 °F
N
3.0
Wind Variable Wind from NW
Gusts 6.0 mph

Today
High -- | Low -- °F
--% Chance of Precip.
Yesterday
High -- | Low -- °F
Precip. -- in
Pressure 30.02 in
Visibility 10.0 miles
Clouds Overcast 1100 ft
Dew Point 54 °F
Humidity 93%
Rainfall 0.00 in
Snow Depth Not available.
5:48 AM 8:33 PM
Waxing Crescent, 4% visible
METAR KHWD 251454Z 28007KT 10SM OVC011 16/12 A2999 RMK AO2 SLP165 T01610117 53011
Pressure 30.02 in
Visibility 10.0 miles
Clouds Overcast 1100 ft
Dew Point 54 °F
Humidity 93%
Rainfall 0.00 in
Snow Depth Not available.
5:48 AM 8:33 PM
Waxing Crescent, 4% visible
METAR KHWD 251454Z 28007KT 10SM OVC011 16/12 A2999 RMK AO2 SLP165 T01610117 53011

Get Severe Weather Alerts

Thanks for signing up!

Be on the lookout for a verification email in your inbox.

You'll start receiving the daily forecast at 6 AM.

×

10-Day Weather Forecast

Almanac

Astronomy

Jun. 25, 2017 Rise Set
Actual Time
Civil Twilight
Nautical Twilight
Astronomical Twilight
Moon
Length of Visible Light
Length of Day
Tomorrow will be .
, % of the Moon is Illuminated

Today's Extremes

State Highs State Lows

Community

WunderPhotos

Category 6

Welcome to Category 6. This is the collective home for Weather Underground's featured writeups by Dr. Jeff Masters (right), Bob Henson (left), Chris Burt, and other regular contributors.

Nearby

Air Quality

  Air Quality AQ Index Pollutant
Not available.

Snow Depth

Station Depth Elevation

Earthquake Activity

City Distance Mag. Time & Date
Minimum magnitude displayed is 2.5.

Coastal Water Temperatures

Place Temperature

Stations

Nearby Weather Stations

Station Location Temp. Windchill Dew Point Humidity Wind Precip. Elev Updated Type
                   

Watches & Warnings

There are currently no watches in effect.